Time;durP1;ratioP1;P1;durP2;ratioP2;P2;SDS_P1;SDS_P2;PMS_P1;PMS_P2;Temp;Humidity;BMP_temperature;BMP_pressure;BME280_temperature;BME280_humidity;BME280_pressure;Samples;Min_cycle;Max_cycle;Signal;HPM_P1;HPM_P2
2021/09/09 00:01:29;;;;;;;9.00;4.07;;;486.40;1382.40;;;;;;5061265;28;20036;-70
2021/09/09 00:03:55;;;;;;;10.00;4.32;;;486.40;1382.40;;;;;;5057228;28;20474;-70
2021/09/09 00:06:21;;;;;;;10.52;3.90;;;461.70;1382.40;;;;;;5062059;28;20016;-70
2021/09/09 00:08:47;;;;;;;8.45;4.05;;;461.70;1382.40;;;;;;5062579;28;20758;-70
2021/09/09 00:11:13;;;;;;;14.68;5.25;;;461.60;1382.40;;;;;;5060772;28;20021;-70
2021/09/09 00:13:39;;;;;;;6.78;4.15;;;461.70;1382.40;;;;;;5062237;28;20440;-70
2021/09/09 00:16:05;;;;;;;11.93;4.43;;;461.60;1382.40;;;;;;5061733;28;20029;-70
2021/09/09 00:18:31;;;;;;;11.45;5.03;;;461.60;1408.00;;;;;;5060689;28;20020;-70
2021/09/09 00:20:57;;;;;;;9.07;4.85;;;461.60;1408.00;;;;;;5060891;28;20394;-70
2021/09/09 00:23:23;;;;;;;7.85;4.47;;;461.60;1408.00;;;;;;5043718;28;20029;-69
2021/09/09 00:25:49;;;;;;;12.65;4.70;;;461.50;1408.00;;;;;;5062638;28;20021;-70
2021/09/09 00:28:15;;;;;;;10.00;4.53;;;461.50;1408.00;;;;;;5057983;28;20044;-70
2021/09/09 00:30:41;;;;;;;13.40;5.47;;;461.50;1433.60;;;;;;5062001;28;20024;-70
2021/09/09 00:33:08;;;;;;;9.88;4.80;;;461.50;1433.60;;;;;;5062268;28;20093;-70
2021/09/09 00:35:37;;;;;;;11.55;5.40;;;461.40;1459.20;;;;;;5060427;28;20027;-70
2021/09/09 00:38:05;;;;;;;12.90;6.03;;;461.40;1459.20;;;;;;5061793;28;20410;-70
2021/09/09 00:40:31;;;;;;;14.25;5.32;;;461.40;1459.20;;;;;;5063205;28;20016;-70
2021/09/09 00:42:57;;;;;;;9.13;5.25;;;461.40;1459.20;;;;;;5042594;28;20025;-70
2021/09/09 00:45:22;;;;;;;11.38;5.32;;;461.40;1459.20;;;;;;5061035;28;20097;-70
2021/09/09 00:47:48;;;;;;;12.82;5.22;;;461.40;1459.20;;;;;;5061007;28;20434;-70
2021/09/09 00:50:14;;;;;;;14.05;5.47;;;461.30;1459.20;;;;;;5042096;28;20505;-70
2021/09/09 00:52:46;;;;;;;10.43;5.35;;;461.30;1459.20;;;;;;5061446;28;20025;-70
2021/09/09 00:55:12;;;;;;;11.30;5.07;;;461.20;1459.20;;;;;;5061798;28;20021;-70
2021/09/09 00:57:38;;;;;;;14.13;5.70;;;461.20;1459.20;;;;;;5062041;28;20099;-70
2021/09/09 01:00:06;;;;;;;14.77;5.10;;;461.20;1459.20;;;;;;5061175;28;20151;-70
2021/09/09 01:02:32;;;;;;;14.60;6.50;;;461.20;1484.80;;;;;;5059529;28;20017;-70
2021/09/09 01:04:57;;;;;;;8.60;5.22;;;461.10;1484.80;;;;;;5061989;28;20481;-70
2021/09/09 01:07:25;;;;;;;15.93;6.18;;;461.10;1484.80;;;;;;5060192;28;20052;-70
2021/09/09 01:09:52;;;;;;;11.52;5.43;;;461.10;1484.80;;;;;;5059596;28;20040;-69
2021/09/09 01:12:18;;;;;;;10.10;5.35;;;461.10;1484.80;;;;;;5064713;28;20116;-70
2021/09/09 01:14:44;;;;;;;9.82;5.30;;;461.00;1459.20;;;;;;5064833;28;20029;-69
2021/09/09 01:17:10;;;;;;;14.02;4.88;;;461.00;1484.80;;;;;;5064056;28;20023;-70
2021/09/09 01:19:36;;;;;;;11.80;5.93;;;460.90;1484.80;;;;;;5036952;28;20109;-70
2021/09/09 01:22:03;;;;;;;12.80;5.30;;;460.90;1484.80;;;;;;5037270;28;20096;-70
2021/09/09 01:24:29;;;;;;;11.38;4.85;;;460.90;1484.80;;;;;;5018297;28;20026;-70
2021/09/09 01:27:04;;;;;;;11.27;5.43;;;461.00;1459.20;;;;;;5036775;28;20030;-70
2021/09/09 01:29:40;;;;;;;12.93;4.95;;;461.00;1459.20;;;;;;5036852;28;20045;-70
2021/09/09 01:32:08;;;;;;;31.45;5.57;;;461.00;1459.20;;;;;;5018523;28;20434;-70
2021/09/09 01:34:34;;;;;;;14.13;5.47;;;461.00;1459.20;;;;;;5036934;28;20096;-70
2021/09/09 01:37:00;;;;;;;9.15;4.82;;;461.00;1433.60;;;;;;5036654;28;20087;-70
2021/09/09 01:39:26;;;;;;;8.13;4.85;;;461.00;1433.60;;;;;;5036903;28;20475;-70
2021/09/09 01:41:54;;;;;;;7.80;4.85;;;461.00;1433.60;;;;;;5036881;28;20071;-70
2021/09/09 01:44:21;;;;;;;12.30;5.35;;;461.00;1433.60;;;;;;5036627;28;20053;-70
2021/09/09 01:46:46;;;;;;;9.40;4.40;;;461.10;1433.60;;;;;;5018510;28;20140;-70
2021/09/09 01:49:12;;;;;;;15.20;5.15;;;461.00;1433.60;;;;;;5036383;28;20449;-70
2021/09/09 01:51:38;;;;;;;6.82;4.65;;;461.00;1433.60;;;;;;5036663;28;20033;-70
2021/09/09 01:54:04;;;;;;;9.60;5.18;;;461.00;1433.60;;;;;;5018927;28;20467;-70
2021/09/09 01:56:30;;;;;;;10.43;6.93;;;461.00;1433.60;;;;;;5036746;28;20033;-70
2021/09/09 01:58:56;;;;;;;12.52;6.22;;;461.00;1433.60;;;;;;5036235;28;20025;-70
2021/09/09 02:01:23;;;;;;;8.88;5.63;;;461.00;1459.20;;;;;;5036041;28;20025;-70
2021/09/09 02:03:49;;;;;;;17.52;5.43;;;461.00;1459.20;;;;;;5036370;28;20022;-70
2021/09/09 02:06:15;;;;;;;8.20;4.90;;;460.90;1459.20;;;;;;5036031;28;20029;-70
2021/09/09 02:08:41;;;;;;;10.98;5.07;;;461.00;1459.20;;;;;;5018404;28;20029;-70
2021/09/09 02:11:07;;;;;;;11.95;5.15;;;461.00;1459.20;;;;;;5017748;28;20037;-70
2021/09/09 02:13:33;;;;;;;13.73;4.80;;;461.00;1433.60;;;;;;5036046;28;20053;-70
2021/09/09 02:15:59;;;;;;;7.32;4.72;;;460.90;1433.60;;;;;;5036090;28;20401;-70
2021/09/09 02:18:24;;;;;;;8.85;4.78;;;460.90;1459.20;;;;;;5035975;28;20026;-70
2021/09/09 02:20:50;;;;;;;13.30;5.13;;;460.90;1459.20;;;;;;5018141;28;20033;-70
2021/09/09 02:23:16;;;;;;;9.73;4.65;;;460.90;1459.20;;;;;;5018005;28;20017;-70
2021/09/09 02:25:42;;;;;;;10.05;4.97;;;460.90;1459.20;;;;;;5018261;28;20036;-70
2021/09/09 02:28:08;;;;;;;12.70;4.65;;;460.90;1459.20;;;;;;5035812;28;20017;-70
2021/09/09 02:30:34;;;;;;;14.70;4.97;;;460.90;1459.20;;;;;;5035310;28;20048;-70
2021/09/09 02:32:59;;;;;;;10.48;4.78;;;460.90;1459.20;;;;;;5035482;28;20025;-70
2021/09/09 02:35:25;;;;;;;8.50;5.07;;;460.90;1459.20;;;;;;5035825;28;20037;-70
2021/09/09 02:37:51;;;;;;;15.45;5.85;;;460.90;1459.20;;;;;;5034172;28;20029;-70
2021/09/09 02:40:17;;;;;;;10.63;4.70;;;460.90;1459.20;;;;;;5035773;28;20026;-70
2021/09/09 02:42:43;;;;;;;12.43;5.30;;;460.90;1459.20;;;;;;5035852;28;20021;-70
2021/09/09 02:45:10;;;;;;;10.30;4.63;;;460.90;1459.20;;;;;;5035539;28;20022;-70
2021/09/09 02:47:36;;;;;;;9.77;4.45;;;460.90;1459.20;;;;;;5035142;28;20100;-70
2021/09/09 02:50:03;;;;;;;10.40;4.47;;;460.90;1459.20;;;;;;5035157;28;20124;-70
2021/09/09 02:52:28;;;;;;;11.23;4.68;;;460.80;1459.20;;;;;;5035428;28;20071;-71
2021/09/09 02:54:54;;;;;;;7.28;4.85;;;460.90;1459.20;;;;;;5035509;28;20104;-70
2021/09/09 02:57:20;;;;;;;11.68;4.95;;;460.90;1459.20;;;;;;5034644;28;20494;-70
2021/09/09 02:59:46;;;;;;;10.25;6.22;;;460.80;1459.20;;;;;;5034821;28;20108;-70
2021/09/09 03:02:11;;;;;;;8.57;4.75;;;460.80;1459.20;;;;;;5035169;28;20414;-70
2021/09/09 03:04:37;;;;;;;8.07;4.47;;;460.80;1459.20;;;;;;5034884;28;20029;-70
2021/09/09 03:07:03;;;;;;;10.57;5.40;;;460.80;1459.20;;;;;;5034597;28;20022;-70
2021/09/09 03:09:29;;;;;;;7.80;4.82;;;460.80;1459.20;;;;;;5035054;28;20039;-70
2021/09/09 03:11:54;;;;;;;14.40;6.07;;;460.80;1459.20;;;;;;5035446;28;20474;-70
2021/09/09 03:14:20;;;;;;;12.57;5.90;;;460.80;1459.20;;;;;;5034104;28;20054;-70
2021/09/09 03:16:46;;;;;;;8.20;5.22;;;460.80;1459.20;;;;;;5034916;28;20022;-71
2021/09/09 03:19:12;;;;;;;13.55;6.03;;;460.80;1484.80;;;;;;5034960;28;20032;-71
2021/09/09 03:21:38;;;;;;;11.32;5.70;;;436.10;1459.20;;;;;;5016615;28;20033;-70
2021/09/09 03:24:04;;;;;;;9.57;5.57;;;436.00;1459.20;;;;;;5034924;28;20079;-70
2021/09/09 03:26:30;;;;;;;11.25;5.53;;;436.00;1459.20;;;;;;5034811;28;20040;-70
2021/09/09 03:28:56;;;;;;;7.20;5.28;;;436.00;1459.20;;;;;;5034423;28;20026;-70
2021/09/09 03:31:21;;;;;;;13.30;5.65;;;436.00;1459.20;;;;;;5034271;28;20038;-70
2021/09/09 03:33:47;;;;;;;10.18;5.65;;;435.90;1459.20;;;;;;5033863;28;20018;-70
2021/09/09 03:36:13;;;;;;;10.18;6.57;;;436.00;1459.20;;;;;;5034493;28;20486;-70
2021/09/09 03:38:39;;;;;;;16.73;7.25;;;435.90;1459.20;;;;;;5034541;28;20079;-70
2021/09/09 03:41:05;;;;;;;18.17;7.75;;;435.90;1459.20;;;;;;5034690;28;20101;-70
2021/09/09 03:43:30;;;;;;;15.18;7.45;;;435.80;1484.80;;;;;;5034446;28;20501;-70
2021/09/09 03:45:56;;;;;;;11.82;6.25;;;435.80;1484.80;;;;;;5034730;28;20478;-71
2021/09/09 03:48:22;;;;;;;23.10;7.32;;;435.70;1484.80;;;;;;5036183;28;20028;-71
2021/09/09 03:50:47;;;;;;;12.20;6.35;;;435.60;1484.80;;;;;;5034224;28;20091;-70
2021/09/09 03:53:13;;;;;;;17.88;6.15;;;435.60;1484.80;;;;;;5033230;28;20022;-70
2021/09/09 03:55:39;;;;;;;16.30;5.85;;;435.60;1484.80;;;;;;5034272;28;20026;-70
2021/09/09 03:58:05;;;;;;;12.80;6.22;;;435.50;1510.40;;;;;;5034104;28;20024;-70
2021/09/09 04:00:31;;;;;;;12.63;6.25;;;435.50;1484.80;;;;;;5034215;28;20032;-70
2021/09/09 04:02:59;;;;;;;14.18;6.65;;;435.40;1510.40;;;;;;5034065;28;20049;-70
2021/09/09 04:05:25;;;;;;;24.25;8.80;;;435.40;1510.40;;;;;;5034157;28;20021;-70
2021/09/09 04:07:50;;;;;;;11.43;7.22;;;435.40;1510.40;;;;;;5034160;28;20030;-70
2021/09/09 04:10:16;;;;;;;14.20;7.10;;;435.30;1510.40;;;;;;5034005;28;20128;-70
2021/09/09 04:12:42;;;;;;;17.25;6.40;;;435.30;1536.00;;;;;;5033759;28;20047;-70
2021/09/09 04:15:08;;;;;;;13.02;6.57;;;435.30;1536.00;;;;;;5033670;28;20075;-70
2021/09/09 04:17:35;;;;;;;18.27;6.93;;;435.30;1510.40;;;;;;5033630;28;20025;-70
2021/09/09 04:20:00;;;;;;;15.50;6.85;;;435.30;1536.00;;;;;;5033295;28;20032;-70
2021/09/09 04:22:26;;;;;;;20.58;8.02;;;435.30;1536.00;;;;;;5033876;28;20030;-69
2021/09/09 04:24:52;;;;;;;19.27;7.63;;;435.30;1536.00;;;;;;5033828;28;20026;-71
2021/09/09 04:27:23;;;;;;;14.75;7.07;;;435.30;1536.00;;;;;;5033712;28;20479;-70
2021/09/09 04:29:50;;;;;;;18.23;6.97;;;435.30;1536.00;;;;;;5015228;28;20041;-70
2021/09/09 04:32:16;;;;;;;22.75;7.43;;;435.30;1536.00;;;;;;5033692;28;20374;-70
2021/09/09 04:34:42;;;;;;;15.90;7.10;;;435.30;1536.00;;;;;;5033692;28;20036;-70
2021/09/09 04:37:08;;;;;;;17.35;7.60;;;435.30;1536.00;;;;;;5033606;28;20018;-70
2021/09/09 04:39:34;;;;;;;16.65;7.00;;;435.20;1561.60;;;;;;5033609;28;20025;-71
2021/09/09 04:41:59;;;;;;;15.10;7.65;;;435.20;1561.60;;;;;;5033614;28;20018;-70
2021/09/09 04:44:25;;;;;;;13.80;7.40;;;435.20;1587.20;;;;;;5033477;28;20398;-70
2021/09/09 04:46:51;;;;;;;21.52;7.70;;;435.20;1587.20;;;;;;5031695;28;20072;-70
2021/09/09 04:49:17;;;;;;;11.48;7.47;;;435.20;1561.60;;;;;;5033689;28;20029;-70
2021/09/09 04:51:43;;;;;;;17.30;7.25;;;435.20;1561.60;;;;;;5033501;28;20022;-70
2021/09/09 04:54:09;;;;;;;16.60;7.68;;;410.50;1561.60;;;;;;5033567;28;20025;-70
2021/09/09 04:56:35;;;;;;;18.55;8.48;;;435.20;1587.20;;;;;;5014097;28;20364;-70
2021/09/09 04:59:01;;;;;;;17.58;8.25;;;435.20;1561.60;;;;;;5031801;28;20416;-70
2021/09/09 05:01:26;;;;;;;12.77;7.85;;;435.20;1587.20;;;;;;5032922;28;20035;-70
2021/09/09 05:03:52;;;;;;;15.70;8.23;;;435.20;1587.20;;;;;;5032732;28;20371;-70
2021/09/09 05:06:18;;;;;;;19.65;8.95;;;435.20;1561.60;;;;;;5033624;28;20057;-70
2021/09/09 05:08:44;;;;;;;12.32;7.75;;;435.30;1561.60;;;;;;5033273;28;20036;-70
2021/09/09 05:11:11;;;;;;;18.92;8.20;;;435.30;1536.00;;;;;;5033357;28;20041;-70
2021/09/09 05:13:40;;;;;;;16.80;8.35;;;435.30;1536.00;;;;;;5032797;28;20049;-70
2021/09/09 05:16:06;;;;;;;17.45;8.20;;;435.30;1536.00;;;;;;5031896;28;20467;-70
2021/09/09 05:18:32;;;;;;;12.75;7.88;;;435.40;1536.00;;;;;;5033085;28;20108;-70
2021/09/09 05:20:58;;;;;;;11.85;7.38;;;435.40;1510.40;;;;;;5033424;28;20424;-70
2021/09/09 05:23:24;;;;;;;19.42;7.72;;;435.40;1536.00;;;;;;5033516;28;20026;-70
2021/09/09 05:25:49;;;;;;;14.32;8.38;;;435.50;1536.00;;;;;;5033043;28;20375;-70
2021/09/09 05:28:15;;;;;;;13.23;7.47;;;435.50;1536.00;;;;;;5032487;28;20052;-70
2021/09/09 05:30:41;;;;;;;14.27;6.68;;;435.60;1510.40;;;;;;5033209;28;20112;-70
2021/09/09 05:33:07;;;;;;;10.43;6.68;;;435.60;1510.40;;;;;;5033326;28;20029;-70
2021/09/09 05:35:33;;;;;;;13.90;6.60;;;435.60;1510.40;;;;;;5015490;28;20032;-70
2021/09/09 05:37:58;;;;;;;12.95;6.65;;;435.70;1510.40;;;;;;5033156;28;20021;-70
2021/09/09 05:40:24;;;;;;;17.63;6.85;;;435.70;1510.40;;;;;;5033079;28;20029;-70
2021/09/09 05:42:50;;;;;;;15.23;6.90;;;435.70;1510.40;;;;;;5032284;28;20032;-70
2021/09/09 05:45:15;;;;;;;14.73;6.38;;;435.80;1536.00;;;;;;5032743;28;20041;-70
2021/09/09 05:47:41;;;;;;;19.05;6.80;;;435.90;1510.40;;;;;;5032941;28;20033;-70
2021/09/09 05:50:07;;;;;;;14.38;7.30;;;435.90;1510.40;;;;;;5037992;28;20058;-69
2021/09/09 05:52:33;;;;;;;7.93;6.28;;;435.90;1536.00;;;;;;5059845;28;20050;-69
2021/09/09 05:54:59;;;;;;;10.35;6.10;;;435.90;1536.00;;;;;;5062387;28;20036;-69
2021/09/09 05:57:25;;;;;;;10.25;6.03;;;436.00;1510.40;;;;;;5045784;28;20374;-70
2021/09/09 05:59:51;;;;;;;10.77;6.30;;;436.00;1536.00;;;;;;5064905;28;20024;-69
2021/09/09 06:02:17;;;;;;;10.07;6.53;;;436.00;1536.00;;;;;;5047818;28;20081;-70
2021/09/09 06:04:44;;;;;;;16.60;7.03;;;436.00;1536.00;;;;;;5065855;28;20147;-70
2021/09/09 06:07:10;;;;;;;12.05;6.10;;;436.10;1510.40;;;;;;5064610;28;20025;-69
2021/09/09 06:09:40;;;;;;;13.45;6.35;;;460.80;1536.00;;;;;;5065518;28;20025;-70
2021/09/09 06:12:06;;;;;;;8.52;5.45;;;460.80;1536.00;;;;;;5066058;28;20108;-70
2021/09/09 06:14:33;;;;;;;11.65;5.85;;;460.90;1536.00;;;;;;5060434;28;20057;-70
2021/09/09 06:16:58;;;;;;;14.85;6.03;;;460.90;1536.00;;;;;;5065281;28;20094;-70
2021/09/09 06:19:25;;;;;;;15.85;8.30;;;460.90;1536.00;;;;;;5065056;28;20017;-70
2021/09/09 06:21:51;;;;;;;22.00;10.63;;;461.00;1536.00;;;;;;5063705;28;20021;-70
2021/09/09 06:24:17;;;;;;;17.92;10.40;;;461.10;1536.00;;;;;;5044579;28;20078;-70
2021/09/09 06:26:43;;;;;;;13.02;8.23;;;461.10;1536.00;;;;;;5055790;28;20025;-70
2021/09/09 06:29:09;;;;;;;16.00;6.75;;;461.20;1536.00;;;;;;5055823;28;20366;-70
2021/09/09 06:31:34;;;;;;;13.02;6.22;;;461.20;1536.00;;;;;;5070296;28;20473;-70
2021/09/09 06:34:00;;;;;;;14.07;5.43;;;461.30;1510.40;;;;;;5063547;28;20036;-69
2021/09/09 06:36:26;;;;;;;13.63;5.03;;;461.40;1510.40;;;;;;5065206;28;20494;-70
2021/09/09 06:38:52;;;;;;;11.18;5.20;;;461.50;1510.40;;;;;;5063251;28;20016;-69
2021/09/09 06:41:17;;;;;;;7.85;4.65;;;461.50;1510.40;;;;;;5062888;28;20020;-69
2021/09/09 06:43:43;;;;;;;12.45;5.20;;;461.50;1484.80;;;;;;5065156;28;20420;-69
2021/09/09 06:46:09;;;;;;;14.73;4.53;;;461.60;1510.40;;;;;;5061672;28;20025;-69
2021/09/09 06:48:35;;;;;;;6.93;4.65;;;461.60;1484.80;;;;;;5063547;28;20033;-69
2021/09/09 06:51:01;;;;;;;10.68;4.63;;;486.40;1484.80;;;;;;5065652;28;20394;-69
2021/09/09 06:53:28;;;;;;;16.10;4.45;;;486.40;1484.80;;;;;;5064991;28;20474;-69
2021/09/09 06:55:54;;;;;;;12.07;4.78;;;486.40;1484.80;;;;;;5058066;28;20048;-70
2021/09/09 06:58:20;;;;;;;12.55;5.65;;;486.50;1484.80;;;;;;5053973;28;20111;-70
2021/09/09 07:00:46;;;;;;;10.38;4.28;;;486.60;1484.80;;;;;;5036851;28;20045;-70
2021/09/09 07:03:12;;;;;;;13.50;5.82;;;486.80;1484.80;;;;;;5054393;28;20075;-69
2021/09/09 07:05:38;;;;;;;9.90;4.50;;;486.80;1484.80;;;;;;5055174;28;20025;-70
2021/09/09 07:08:04;;;;;;;6.72;3.75;;;486.90;1459.20;;;;;;5054834;28;20115;-70
2021/09/09 07:10:30;;;;;;;11.68;4.18;;;487.10;1459.20;;;;;;5053979;28;20033;-70
2021/09/09 07:12:56;;;;;;;10.00;4.13;;;487.20;1459.20;;;;;;5053934;28;20095;-70
2021/09/09 07:15:22;;;;;;;8.15;3.78;;;487.30;1459.20;;;;;;5054864;28;20036;-70
2021/09/09 07:17:47;;;;;;;14.50;5.97;;;512.10;1433.60;;;;;;5054869;28;20025;-70
2021/09/09 07:20:13;;;;;;;19.70;6.57;;;512.30;1408.00;;;;;;5036579;28;20028;-70
2021/09/09 07:22:39;;;;;;;18.38;6.60;;;512.60;1382.40;;;;;;5055023;28;20024;-70
2021/09/09 07:25:05;;;;;;;20.85;7.40;;;512.70;1382.40;;;;;;5054892;28;20029;-69
2021/09/09 07:27:31;;;;;;;17.08;6.72;;;537.60;1356.80;;;;;;5054831;28;20082;-70
2021/09/09 07:29:57;;;;;;;17.13;5.65;;;537.70;1356.80;;;;;;5054826;28;20502;-70
2021/09/09 07:32:24;;;;;;;16.90;4.32;;;538.00;1331.20;;;;;;5054198;28;20024;-70
2021/09/09 07:34:50;;;;;;;39.13;4.72;;;538.20;1331.20;;;;;;5054201;28;20505;-70
2021/09/09 07:37:16;;;;;;;27.27;3.90;;;538.40;1280.00;;;;;;5054289;28;20374;-70
2021/09/09 07:39:42;;;;;;;29.45;3.97;;;563.30;1280.00;;;;;;5036719;28;20025;-70
2021/09/09 07:42:08;;;;;;;38.20;4.57;;;563.50;1280.00;;;;;;5054264;28;20044;-70
2021/09/09 07:44:33;;;;;;;27.73;3.72;;;563.70;1254.40;;;;;;5054508;28;20083;-70
2021/09/09 07:47:01;;;;;;;31.35;3.70;;;563.90;1228.80;;;;;;5054462;28;20441;-70
2021/09/09 07:49:28;;;;;;;44.22;4.28;;;564.10;1203.20;;;;;;5054247;28;20352;-70
2021/09/09 07:51:54;;;;;;;21.48;2.90;;;588.90;1177.60;;;;;;5054336;28;20028;-70
2021/09/09 07:54:20;;;;;;;89.40;7.65;;;589.10;1152.00;;;;;;5054203;28;20378;-70
2021/09/09 07:56:48;;;;;;;65.38;5.32;;;589.30;1126.40;;;;;;5054225;28;20025;-70
2021/09/09 07:59:16;;;;;;;30.83;3.20;;;589.50;1126.40;;;;;;5054201;28;20029;-70
2021/09/09 08:01:44;;;;;;;27.75;3.25;;;589.70;1100.80;;;;;;5053946;28;20082;-70
2021/09/09 08:04:15;;;;;;;27.58;4.40;;;614.40;1075.20;;;;;;5054116;28;20103;-70
2021/09/09 08:06:44;;;;;;;11.20;2.97;;;614.50;1075.20;;;;;;5053755;28;20044;-70
2021/09/09 08:09:11;;;;;;;17.75;3.17;;;614.70;1049.60;;;;;;5054270;28;20025;-69
2021/09/09 08:11:37;;;;;;;14.60;2.70;;;614.80;1049.60;;;;;;5053998;28;20048;-69
2021/09/09 08:14:03;;;;;;;23.23;3.95;;;615.00;1049.60;;;;;;5053671;28;20041;-70
2021/09/09 08:16:29;;;;;;;20.05;3.85;;;615.00;1049.60;;;;;;5054155;28;20028;-70
2021/09/09 08:18:54;;;;;;;14.73;3.63;;;615.20;1024.00;;;;;;5053848;28;20083;-70
2021/09/09 08:21:20;;;;;;;16.80;4.22;;;615.30;1024.00;;;;;;5035487;28;20417;-70
2021/09/09 08:23:46;;;;;;;24.83;4.07;;;640.00;998.40;;;;;;5053608;28;20033;-70
2021/09/09 08:26:12;;;;;;;12.23;2.30;;;640.10;972.80;;;;;;5053762;28;20029;-70
2021/09/09 08:28:38;;;;;;;19.60;3.30;;;640.20;972.80;;;;;;5053213;28;20098;-70
2021/09/09 08:31:05;;;;;;;15.43;3.25;;;640.30;972.80;;;;;;5053548;28;20413;-70
2021/09/09 08:33:32;;;;;;;38.10;4.32;;;640.40;972.80;;;;;;5053495;28;20049;-70
2021/09/09 08:36:02;;;;;;;20.60;2.95;;;640.60;947.20;;;;;;5035771;28;20036;-69
2021/09/09 08:38:28;;;;;;;20.95;3.67;;;640.70;947.20;;;;;;5053036;28;20386;-70
2021/09/09 08:40:53;;;;;;;17.58;3.17;;;640.80;947.20;;;;;;5053750;28;20096;-69
2021/09/09 08:43:19;;;;;;;16.30;3.55;;;640.80;921.60;;;;;;5053537;28;20078;-69
2021/09/09 08:45:51;;;;;;;15.18;2.83;;;665.60;947.20;;;;;;5053775;28;20075;-70
2021/09/09 08:48:17;;;;;;;20.92;3.63;;;665.70;921.60;;;;;;5053487;28;20025;-70
2021/09/09 08:50:43;;;;;;;20.80;3.20;;;665.70;947.20;;;;;;5053136;28;20040;-70
2021/09/09 08:53:09;;;;;;;14.20;3.58;;;665.80;921.60;;;;;;5053524;28;20021;-70
2021/09/09 08:55:35;;;;;;;21.88;5.05;;;665.90;896.00;;;;;;5053157;28;20033;-69
2021/09/09 08:58:02;;;;;;;8.48;4.18;;;666.00;921.60;;;;;;5053411;28;20474;-70
2021/09/09 09:00:28;;;;;;;20.30;3.42;;;666.00;921.60;;;;;;5053333;28;20036;-70
2021/09/09 09:02:56;;;;;;;20.35;3.35;;;666.10;896.00;;;;;;5053202;28;20025;-69
2021/09/09 09:05:23;;;;;;;30.45;3.22;;;666.20;896.00;;;;;;5053473;28;20104;-69
2021/09/09 09:08:04;;;;;;;13.63;3.25;;;666.30;870.40;;;;;;5053213;28;20031;-70
2021/09/09 09:10:31;;;;;;;29.70;3.42;;;666.30;844.80;;;;;;5034515;28;20037;-69
2021/09/09 09:12:58;;;;;;;15.18;2.95;;;666.30;870.40;;;;;;5034876;28;20093;-70
2021/09/09 09:15:26;;;;;;;45.65;3.95;;;666.40;844.80;;;;;;5053049;28;20157;-70
2021/09/09 09:18:08;;;;;;;18.67;3.25;;;666.40;844.80;;;;;;5052978;28;20100;-69
2021/09/09 09:20:51;;;;;;;32.20;3.83;;;666.50;844.80;;;;;;5053238;28;20024;-69
2021/09/09 09:23:24;;;;;;;22.27;3.58;;;691.20;844.80;;;;;;5053063;28;20102;-70
2021/09/09 09:25:51;;;;;;;13.20;3.30;;;691.20;844.80;;;;;;5053240;28;20033;-69
2021/09/09 09:28:37;;;;;;;20.67;3.13;;;691.20;819.20;;;;;;5053241;28;20029;-70
2021/09/09 09:31:05;;;;;;;10.88;2.80;;;691.30;844.80;;;;;;5035047;28;20037;-70
2021/09/09 09:33:37;;;;;;;10.10;3.50;;;691.30;819.20;;;;;;5055927;28;20029;-69
2021/09/09 09:36:34;;;;;;;11.18;3.72;;;691.40;819.20;;;;;;5056913;28;20035;-70
2021/09/09 09:39:13;;;;;;;23.85;3.63;;;691.50;819.20;;;;;;5056783;28;20383;-70
2021/09/09 09:41:41;;;;;;;16.02;2.60;;;691.50;793.60;;;;;;5056824;28;20033;-69
2021/09/09 09:44:09;;;;;;;26.50;4.78;;;691.50;793.60;;;;;;5056710;28;20104;-69
2021/09/09 09:46:40;;;;;;;20.20;2.70;;;691.50;768.00;;;;;;5038165;28;20025;-69
2021/09/09 09:49:29;;;;;;;30.27;3.85;;;691.60;768.00;;;;;;5056601;28;20017;-69
2021/09/09 09:51:57;;;;;;;14.50;3.25;;;691.60;768.00;;;;;;5056645;28;20474;-69
2021/09/09 09:54:27;;;;;;;21.00;2.63;;;691.60;793.60;;;;;;5038669;28;20470;-63
2021/09/09 09:56:54;;;;;;;13.25;3.00;;;691.70;768.00;;;;;;5054333;28;20072;-68
2021/09/09 09:59:21;;;;;;;26.80;3.28;;;691.70;768.00;;;;;;5055755;28;20078;-68
2021/09/09 10:01:47;;;;;;;10.02;2.53;;;691.70;768.00;;;;;;5053961;28;20044;-69
2021/09/09 10:04:19;;;;;;;17.35;2.83;;;691.70;768.00;;;;;;5046188;28;20028;-68
2021/09/09 10:06:47;;;;;;;16.52;2.90;;;691.70;768.00;;;;;;5044367;28;20021;-68
2021/09/09 10:09:14;;;;;;;15.00;2.88;;;691.70;793.60;;;;;;5041875;28;20136;-68
2021/09/09 10:11:40;;;;;;;13.40;2.80;;;691.80;793.60;;;;;;5053433;28;20094;-68
2021/09/09 10:14:07;;;;;;;30.00;4.53;;;691.80;793.60;;;;;;5035800;28;20117;-69
2021/09/09 10:16:38;;;;;;;13.43;3.03;;;691.90;768.00;;;;;;5045776;28;20039;-69
2021/09/09 10:19:04;;;;;;;17.60;3.35;;;691.90;742.40;;;;;;5053521;28;20021;-69
2021/09/09 10:21:45;;;;;;;24.85;3.33;;;691.90;768.00;;;;;;5053413;28;20363;-69
2021/09/09 10:24:17;;;;;;;10.93;3.78;;;691.80;768.00;;;;;;5053314;28;20045;-69
2021/09/09 10:26:44;;;;;;;21.90;3.28;;;691.80;768.00;;;;;;5036597;28;20033;-67
2021/09/09 10:29:41;;;;;;;13.80;2.70;;;691.80;768.00;;;;;;5054043;28;20024;-66
2021/09/09 10:32:08;;;;;;;26.48;4.15;;;691.80;768.00;;;;;;5048642;28;20025;-66
2021/09/09 10:34:34;;;;;;;13.02;5.38;;;691.80;768.00;;;;;;5053961;28;20021;-67
2021/09/09 10:36:59;;;;;;;10.43;4.20;;;691.90;768.00;;;;;;5033586;28;20044;-66
2021/09/09 10:39:34;;;;;;;19.42;4.25;;;691.90;768.00;;;;;;5045920;28;20104;-66
2021/09/09 10:42:20;;;;;;;16.13;3.95;;;692.00;768.00;;;;;;5045800;28;20025;-66
2021/09/09 10:44:49;;;;;;;11.50;3.47;;;692.00;768.00;;;;;;5043402;28;20463;-67
2021/09/09 10:47:22;;;;;;;16.27;4.63;;;692.10;768.00;;;;;;5044187;28;20025;-66
2021/09/09 10:50:01;;;;;;;16.95;3.50;;;716.80;793.60;;;;;;5048960;28;20043;-65
2021/09/09 10:52:27;;;;;;;10.82;3.20;;;716.80;793.60;;;;;;5045178;28;20840;-67
2021/09/09 10:55:10;;;;;;;11.02;3.20;;;716.80;793.60;;;;;;5054040;28;20075;-66
2021/09/09 10:57:36;;;;;;;9.00;3.53;;;716.90;768.00;;;;;;5047493;28;20025;-69
2021/09/09 11:00:04;;;;;;;9.65;4.10;;;716.90;793.60;;;;;;5054902;28;20082;-67
2021/09/09 11:02:33;;;;;;;19.05;3.72;;;717.00;793.60;;;;;;5031190;28;20131;-65
2021/09/09 11:05:04;;;;;;;11.48;2.78;;;717.00;793.60;;;;;;5052046;28;20021;-70
2021/09/09 11:07:32;;;;;;;13.00;3.60;;;717.00;793.60;;;;;;5055328;28;20028;-66
2021/09/09 11:10:17;;;;;;;10.07;3.22;;;717.00;793.60;;;;;;5054859;28;20120;-66
2021/09/09 11:12:43;;;;;;;7.28;2.80;;;717.00;793.60;;;;;;5052465;28;20037;-66
2021/09/09 11:15:11;;;;;;;12.90;2.58;;;717.00;793.60;;;;;;5034037;28;20037;-66
2021/09/09 11:17:38;;;;;;;8.20;3.20;;;717.00;793.60;;;;;;5031676;28;20108;-70
2021/09/09 11:20:10;;;;;;;10.65;3.05;;;717.10;768.00;;;;;;5034984;28;20442;-66
2021/09/09 11:22:37;;;;;;;9.00;2.50;;;717.10;768.00;;;;;;5035038;28;20418;-66
2021/09/09 11:25:15;;;;;;;11.00;3.15;;;717.10;768.00;;;;;;5034752;28;20032;-66
2021/09/09 11:27:41;;;;;;;6.43;2.60;;;717.10;793.60;;;;;;5035414;28;20040;-66
2021/09/09 11:30:08;;;;;;;10.15;3.03;;;717.20;793.60;;;;;;5034986;28;20471;-66
2021/09/09 11:32:34;;;;;;;6.93;2.70;;;717.20;768.00;;;;;;5034950;28;20076;-66
2021/09/09 11:35:10;;;;;;;9.77;2.50;;;717.30;768.00;;;;;;5034424;28;20029;-66
2021/09/09 11:37:46;;;;;;;14.80;2.42;;;717.40;768.00;;;;;;5034778;28;20026;-66
2021/09/09 11:40:13;;;;;;;8.73;2.95;;;717.40;768.00;;;;;;5034497;28;20451;-68
2021/09/09 11:42:39;;;;;;;9.88;2.63;;;717.40;793.60;;;;;;5034331;28;20045;-66
2021/09/09 11:45:06;;;;;;;7.82;2.75;;;717.40;768.00;;;;;;5033029;28;20415;-66
2021/09/09 11:47:31;;;;;;;15.50;2.20;;;717.50;768.00;;;;;;5034216;28;20032;-66
2021/09/09 11:50:02;;;;;;;6.03;2.08;;;717.50;768.00;;;;;;5016623;28;20041;-66
2021/09/09 11:52:28;;;;;;;7.40;2.47;;;717.50;742.40;;;;;;5034117;28;20041;-66
2021/09/09 11:54:53;;;;;;;5.80;2.58;;;717.50;742.40;;;;;;5033999;28;20033;-68
2021/09/09 11:57:19;;;;;;;11.07;2.50;;;717.50;742.40;;;;;;5034346;28;20025;-66
2021/09/09 11:59:53;;;;;;;7.13;2.50;;;717.50;742.40;;;;;;5034196;28;20382;-66
2021/09/09 12:02:24;;;;;;;5.68;2.20;;;717.50;768.00;;;;;;5034370;28;20021;-66
2021/09/09 12:04:50;;;;;;;6.70;2.13;;;717.40;768.00;;;;;;5029677;28;20025;-66
2021/09/09 12:07:24;;;;;;;7.93;2.05;;;717.40;742.40;;;;;;5034269;28;20022;-66
2021/09/09 12:09:54;;;;;;;7.03;2.55;;;717.40;742.40;;;;;;5033891;28;20041;-67
2021/09/09 12:12:20;;;;;;;5.72;2.55;;;717.40;768.00;;;;;;5034089;28;20021;-66
2021/09/09 12:14:57;;;;;;;5.43;2.50;;;717.40;768.00;;;;;;5034436;28;20506;-66